Kawaguchi, Japan
Current Conditions -  °F | °C
As of 9:00 PM on Wednesday 28 Jan 2015 (Local Time) from RJTT Reporting Station
Clear Clear  
Wind Chill: 32°   Ceiling: Unl
Heat Index: 39°   Visibility: 6mi
Dew Point: 16°   Wind: 13mph
Humidity: 39%   Direction: 20°NNE
Pressure: 30.18"   Gusts: NA
Location:  35.81°N, 139.73°E
Report Text: RJTT 281200Z 02011KT CAVOK 04/M09 Q1022 NOSIG
Loading
Personal Weather Stations






























Interactive Weather Map New forecast layout! Learn more

10-Day Weather Forecast

Advertisements
Track Severe Weather on mobile